Time;durP1;ratioP1;P1;durP2;ratioP2;P2;SDS_P1;SDS_P2;PMS_P1;PMS_P2;Temp;Humidity;BMP_temperature;BMP_pressure;BME280_temperature;BME280_humidity;BME280_pressure;Samples;Min_cycle;Max_cycle;Signal;HPM_P1;HPM_P2
2021/05/25 00:01:08;;;;;;;1.20;0.90;;;10.80;98.00;;;;;;5048066;28;20537;-71
2021/05/25 00:03:36;;;;;;;1.20;0.90;;;10.80;98.00;;;;;;5050555;28;20465;-71
2021/05/25 00:06:02;;;;;;;1.20;0.90;;;10.70;98.00;;;;;;5048152;28;20451;-72
2021/05/25 00:08:47;;;;;;;1.20;1.00;;;10.80;98.00;;;;;;5050344;28;20489;-72
2021/05/25 00:11:15;;;;;;;1.60;1.00;;;10.80;98.00;;;;;;5047642;28;20478;-72
2021/05/25 00:13:42;;;;;;;1.60;1.30;;;10.90;98.00;;;;;;5050399;28;20451;-71
2021/05/25 00:16:08;;;;;;;1.20;0.93;;;10.80;98.00;;;;;;5047418;28;20480;-71
2021/05/25 00:18:36;;;;;;;1.20;0.93;;;10.90;98.00;;;;;;5050289;28;20548;-72
2021/05/25 00:21:02;;;;;;;1.20;1.00;;;10.90;98.00;;;;;;5047612;28;20485;-72
2021/05/25 00:23:29;;;;;;;1.20;0.90;;;10.90;98.00;;;;;;5050168;28;20473;-72
2021/05/25 00:25:55;;;;;;;1.20;0.90;;;10.80;98.00;;;;;;5050134;28;20485;-71
2021/05/25 00:28:23;;;;;;;1.20;0.90;;;10.70;98.00;;;;;;5054229;28;20494;-72
2021/05/25 00:30:49;;;;;;;2.07;1.10;;;10.80;98.00;;;;;;5051510;28;20477;-71
2021/05/25 00:33:16;;;;;;;1.20;1.00;;;10.80;98.00;;;;;;5053902;28;20487;-71
2021/05/25 00:35:43;;;;;;;1.20;0.90;;;10.80;98.00;;;;;;5051304;28;20496;-71
2021/05/25 00:38:11;;;;;;;1.40;1.10;;;10.70;98.00;;;;;;5053845;28;20458;-72
2021/05/25 00:40:39;;;;;;;1.20;1.00;;;10.60;98.00;;;;;;5051287;28;20457;-72
2021/05/25 00:43:06;;;;;;;1.20;1.00;;;10.70;98.00;;;;;;5053832;28;20829;-73
2021/05/25 00:45:33;;;;;;;1.20;1.00;;;10.70;98.00;;;;;;5051165;28;20553;-72
2021/05/25 00:48:00;;;;;;;1.20;1.00;;;10.70;98.00;;;;;;5053855;28;20951;-71
2021/05/25 00:50:28;;;;;;;1.20;1.00;;;10.60;98.00;;;;;;5050843;28;20494;-72
2021/05/25 00:52:58;;;;;;;1.20;0.90;;;10.60;98.00;;;;;;5053817;28;20540;-72
2021/05/25 01:35:50;;;;;;;1.20;0.90;;;10.10;98.00;;;;;;5050270;28;20957;-71
2021/05/25 01:38:17;;;;;;;1.20;0.90;;;10.10;98.00;;;;;;5052616;28;20595;-72
2021/05/25 01:40:44;;;;;;;1.20;1.00;;;10.10;98.00;;;;;;5050172;28;20520;-72
2021/05/25 01:43:11;;;;;;;1.20;0.90;;;10.20;98.00;;;;;;5052485;28;21034;-71
2021/05/25 01:45:38;;;;;;;1.20;1.10;;;10.10;98.00;;;;;;5050063;28;20464;-72
2021/05/25 01:48:07;;;;;;;1.20;1.00;;;10.10;98.00;;;;;;5052558;28;20486;-72
2021/05/25 01:50:34;;;;;;;1.20;0.97;;;10.10;98.00;;;;;;5049660;28;21018;-71
2021/05/25 01:53:04;;;;;;;1.20;0.90;;;10.10;98.00;;;;;;5052419;28;20487;-72
2021/05/25 01:55:33;;;;;;;1.20;0.90;;;10.20;98.00;;;;;;5049883;28;20546;-72
2021/05/25 01:58:02;;;;;;;1.20;1.00;;;10.30;98.00;;;;;;5052432;28;20974;-71
2021/05/25 02:00:29;;;;;;;1.20;0.90;;;10.30;98.00;;;;;;5049687;28;20527;-72
2021/05/25 02:02:56;;;;;;;1.20;1.00;;;10.30;98.00;;;;;;5052183;28;20887;-71
2021/05/25 02:05:22;;;;;;;1.20;1.00;;;10.20;98.00;;;;;;5049903;28;20485;-72
2021/05/25 02:07:51;;;;;;;1.20;1.00;;;10.20;98.00;;;;;;5052544;28;20841;-71
2021/05/25 02:10:30;;;;;;;1.20;1.00;;;10.10;98.00;;;;;;5052497;28;20839;-72
2021/05/25 02:12:59;;;;;;;1.20;1.00;;;10.10;98.00;;;;;;5052050;28;20464;-72
2021/05/25 02:15:26;;;;;;;1.20;0.90;;;10.10;98.00;;;;;;5049677;28;20466;-71
2021/05/25 02:17:52;;;;;;;1.20;1.00;;;10.20;98.00;;;;;;5051991;28;20966;-71
2021/05/25 02:20:19;;;;;;;1.20;0.90;;;10.10;98.00;;;;;;5051782;28;20881;-72
2021/05/25 02:22:45;;;;;;;1.20;1.00;;;9.90;98.00;;;;;;5049986;28;20498;-72
2021/05/25 02:25:12;;;;;;;1.20;0.90;;;9.80;98.00;;;;;;5051950;28;20450;-71
2021/05/25 02:27:40;;;;;;;1.20;0.97;;;9.80;98.00;;;;;;5049275;28;20511;-71
2021/05/25 02:30:07;;;;;;;1.20;1.00;;;9.80;98.00;;;;;;5051894;28;20462;-71
2021/05/25 02:32:34;;;;;;;1.20;1.00;;;9.70;98.00;;;;;;5049199;28;20457;-72
2021/05/25 02:35:00;;;;;;;1.20;0.90;;;9.70;98.00;;;;;;5051623;28;20470;-71
2021/05/25 02:37:27;;;;;;;1.20;0.90;;;9.70;98.00;;;;;;5049087;28;20481;-72
2021/05/25 02:39:53;;;;;;;1.60;1.10;;;9.70;98.00;;;;;;5051787;28;20835;-72
2021/05/25 02:42:20;;;;;;;1.20;0.90;;;9.80;98.00;;;;;;5049406;28;20903;-71
2021/05/25 02:44:47;;;;;;;1.20;1.00;;;9.80;98.00;;;;;;5051230;28;20481;-71
2021/05/25 02:47:14;;;;;;;1.20;1.00;;;9.90;98.00;;;;;;5048708;28;20490;-71
2021/05/25 02:49:40;;;;;;;1.20;0.90;;;9.90;98.00;;;;;;5051142;28;20463;-71
2021/05/25 02:52:07;;;;;;;1.20;0.90;;;9.90;98.00;;;;;;5049169;28;20836;-71
2021/05/25 02:54:33;;;;;;;1.20;0.90;;;9.80;98.00;;;;;;5051426;28;20955;-71
2021/05/25 02:57:00;;;;;;;1.20;1.00;;;9.80;98.00;;;;;;5048905;28;20457;-71
2021/05/25 02:59:26;;;;;;;1.20;0.90;;;9.70;98.00;;;;;;5051201;28;20536;-72
2021/05/25 03:01:55;;;;;;;1.20;1.00;;;9.70;98.00;;;;;;5049053;28;20953;-71
2021/05/25 03:04:21;;;;;;;1.20;1.00;;;9.60;98.00;;;;;;5051093;28;20468;-72
2021/05/25 03:06:50;;;;;;;1.20;1.00;;;9.70;98.00;;;;;;5048763;28;20450;-71
2021/05/25 03:09:17;;;;;;;1.20;1.00;;;9.60;98.00;;;;;;5050189;28;20959;-71
2021/05/25 03:11:44;;;;;;;1.30;1.00;;;9.60;98.00;;;;;;5048826;28;20651;-72
2021/05/25 03:14:11;;;;;;;1.20;1.00;;;9.50;98.00;;;;;;5051049;28;20490;-71
2021/05/25 03:16:38;;;;;;;1.20;1.00;;;9.40;98.00;;;;;;5048641;28;20453;-71
2021/05/25 03:19:06;;;;;;;1.20;1.00;;;9.50;98.00;;;;;;5051013;28;20970;-72
2021/05/25 03:21:32;;;;;;;1.20;0.90;;;9.40;98.00;;;;;;5048842;28;20493;-71
2021/05/25 03:23:59;;;;;;;1.20;1.00;;;9.40;98.00;;;;;;5051146;28;21151;-71
2021/05/25 03:26:25;;;;;;;1.80;1.20;;;9.40;98.00;;;;;;5048485;28;20907;-71
2021/05/25 03:28:52;;;;;;;1.20;1.00;;;9.30;98.00;;;;;;5050892;28;20506;-71
2021/05/25 03:31:18;;;;;;;1.20;0.90;;;9.10;98.00;;;;;;5048724;28;20569;-71
2021/05/25 03:33:45;;;;;;;1.20;0.90;;;9.20;98.00;;;;;;5051833;28;20452;-71
2021/05/25 03:36:13;;;;;;;1.30;1.10;;;9.20;98.00;;;;;;5047894;28;20505;-71
2021/05/25 03:38:39;;;;;;;1.30;1.20;;;9.20;98.00;;;;;;5050885;28;20452;-71
2021/05/25 03:41:06;;;;;;;1.20;1.00;;;9.20;98.00;;;;;;5048742;28;20964;-71
2021/05/25 03:43:32;;;;;;;1.20;0.90;;;9.20;98.00;;;;;;5050708;28;20552;-72
2021/05/25 03:45:58;;;;;;;1.20;0.90;;;9.30;98.00;;;;;;5048211;28;20487;-71
2021/05/25 03:48:25;;;;;;;1.20;0.90;;;9.20;98.00;;;;;;5050799;28;20483;-71
2021/05/25 03:50:51;;;;;;;1.20;1.00;;;9.20;98.00;;;;;;5048113;28;21098;-70
2021/05/25 03:53:19;;;;;;;1.20;0.93;;;9.20;98.00;;;;;;5050963;28;20460;-71
2021/05/25 03:55:51;;;;;;;1.20;1.00;;;9.20;98.00;;;;;;5048157;28;20543;-71
2021/05/25 04:01:03;;;;;;;1.20;1.00;;;9.40;98.00;;;;;;5050978;28;20451;-71
2021/05/25 04:03:29;;;;;;;1.20;0.90;;;9.40;98.00;;;;;;5054785;28;20862;-71
2021/05/25 04:05:57;;;;;;;1.20;0.90;;;9.40;98.00;;;;;;5052247;28;20468;-71
2021/05/25 04:08:24;;;;;;;1.20;0.90;;;9.40;98.00;;;;;;5054406;28;20874;-70
2021/05/25 04:10:50;;;;;;;1.20;0.90;;;9.40;98.00;;;;;;5051754;28;20499;-71
2021/05/25 04:13:18;;;;;;;1.20;1.00;;;9.30;98.00;;;;;;5054623;28;20460;-71
2021/05/25 04:15:47;;;;;;;1.20;0.90;;;9.30;98.00;;;;;;5051717;28;20809;-71
2021/05/25 04:18:14;;;;;;;1.20;1.00;;;9.30;98.00;;;;;;5054445;28;20486;-71
2021/05/25 04:20:41;;;;;;;1.20;0.90;;;9.20;98.00;;;;;;5051822;28;20468;-71
2021/05/25 04:23:08;;;;;;;1.20;0.90;;;9.20;98.00;;;;;;5054279;28;20460;-71
2021/05/25 04:25:35;;;;;;;1.20;0.93;;;9.30;98.00;;;;;;5052602;28;20803;-71
2021/05/25 04:28:02;;;;;;;1.20;0.90;;;9.30;98.00;;;;;;5054260;28;20842;-71
2021/05/25 04:30:29;;;;;;;1.20;0.90;;;9.40;98.00;;;;;;5054174;28;20461;-71
2021/05/25 04:32:56;;;;;;;1.20;0.90;;;9.40;98.00;;;;;;5051642;28;20461;-71
2021/05/25 04:35:22;;;;;;;1.20;0.93;;;9.30;98.00;;;;;;5053183;28;20496;-71
2021/05/25 04:37:51;;;;;;;1.20;0.90;;;9.40;98.00;;;;;;5051641;28;20484;-71
2021/05/25 04:40:18;;;;;;;1.20;0.90;;;9.30;98.00;;;;;;5053204;28;20505;-71
2021/05/25 04:42:46;;;;;;;1.20;1.00;;;9.40;98.00;;;;;;5050329;28;21030;-71
2021/05/25 04:45:13;;;;;;;1.20;0.90;;;9.50;98.00;;;;;;5053954;28;20876;-71
2021/05/25 04:47:40;;;;;;;1.20;0.90;;;9.40;98.00;;;;;;5051148;28;20468;-71
2021/05/25 04:50:09;;;;;;;1.20;1.00;;;9.40;98.00;;;;;;5053637;28;20472;-70
2021/05/25 04:52:37;;;;;;;1.20;1.00;;;9.40;98.00;;;;;;5051297;28;20488;-71
2021/05/25 04:55:12;;;;;;;1.20;1.00;;;9.40;98.00;;;;;;5053582;28;20460;-71
2021/05/25 04:57:39;;;;;;;1.20;0.90;;;9.30;98.00;;;;;;5051256;28;21031;-71
2021/05/25 05:00:10;;;;;;;1.20;0.90;;;9.30;98.00;;;;;;5053593;28;20485;-71
2021/05/25 05:02:37;;;;;;;1.20;0.90;;;9.30;98.00;;;;;;5049654;28;20937;-71
2021/05/25 05:05:05;;;;;;;1.20;1.00;;;9.30;98.00;;;;;;5053663;28;20471;-71
2021/05/25 05:07:32;;;;;;;1.20;0.90;;;9.40;98.00;;;;;;5050876;28;20465;-71
2021/05/25 05:09:58;;;;;;;1.20;1.00;;;9.40;98.00;;;;;;5052076;28;20499;-71
2021/05/25 05:12:26;;;;;;;1.20;1.00;;;9.40;98.00;;;;;;5049983;28;20517;-71
2021/05/25 05:14:53;;;;;;;1.20;0.90;;;9.50;98.00;;;;;;5053174;28;20959;-71
2021/05/25 05:17:22;;;;;;;1.50;1.10;;;9.50;98.00;;;;;;5050607;28;20459;-71
2021/05/25 05:19:49;;;;;;;1.20;1.00;;;9.60;98.00;;;;;;5053107;28;20542;-71
2021/05/25 05:22:15;;;;;;;1.20;0.90;;;9.60;98.00;;;;;;5050710;28;20485;-71
2021/05/25 05:24:42;;;;;;;1.20;0.90;;;9.50;98.00;;;;;;5053104;28;20492;-71
2021/05/25 05:27:08;;;;;;;1.20;0.90;;;9.50;98.00;;;;;;5050760;28;20501;-71
2021/05/25 05:29:35;;;;;;;1.20;1.00;;;9.50;98.00;;;;;;5053125;28;20462;-71
2021/05/25 05:32:01;;;;;;;1.20;1.00;;;9.40;98.00;;;;;;5050423;28;20533;-71
2021/05/25 05:34:29;;;;;;;1.30;1.10;;;9.50;98.00;;;;;;5052827;28;20461;-71
2021/05/25 05:36:55;;;;;;;1.20;0.97;;;9.50;98.00;;;;;;5050223;28;20546;-70
2021/05/25 05:39:22;;;;;;;1.20;1.00;;;9.60;98.00;;;;;;5051663;28;20532;-71
2021/05/25 05:41:49;;;;;;;1.20;0.90;;;9.50;98.00;;;;;;5050043;28;20453;-71
2021/05/25 05:44:15;;;;;;;1.20;1.00;;;9.60;98.00;;;;;;5052728;28;20469;-71
2021/05/25 05:46:42;;;;;;;1.20;0.90;;;9.60;98.00;;;;;;5050031;28;20504;-71
2021/05/25 05:49:08;;;;;;;1.20;1.00;;;9.70;98.00;;;;;;5052751;28;20519;-71
2021/05/25 05:51:36;;;;;;;1.20;1.00;;;9.70;98.00;;;;;;5050056;28;20555;-71
2021/05/25 05:54:02;;;;;;;1.20;1.00;;;9.80;98.00;;;;;;5051429;28;20460;-71
2021/05/25 05:56:29;;;;;;;1.20;0.93;;;9.90;98.00;;;;;;5048856;28;20465;-71
2021/05/25 05:58:57;;;;;;;1.20;1.00;;;10.00;98.00;;;;;;5052417;28;20963;-71
2021/05/25 06:01:23;;;;;;;1.20;1.00;;;10.00;98.00;;;;;;5049953;28;20457;-71
2021/05/25 06:03:50;;;;;;;1.20;0.93;;;10.00;98.00;;;;;;5052184;28;20450;-70
2021/05/25 06:06:16;;;;;;;1.20;0.90;;;10.10;98.00;;;;;;5049712;28;20458;-71
2021/05/25 06:08:44;;;;;;;1.20;0.93;;;10.20;98.00;;;;;;5052107;28;20486;-71
2021/05/25 06:11:10;;;;;;;1.20;1.00;;;10.30;98.00;;;;;;5048321;28;20489;-71
2021/05/25 06:13:37;;;;;;;1.40;1.10;;;10.40;98.00;;;;;;5050806;28;20569;-71
2021/05/25 06:16:05;;;;;;;1.20;1.10;;;10.40;98.00;;;;;;5049645;28;20451;-71
2021/05/25 06:18:33;;;;;;;1.20;0.90;;;10.40;98.00;;;;;;5052081;28;20458;-72
2021/05/25 06:21:01;;;;;;;1.20;1.00;;;10.60;98.00;;;;;;5049572;28;20478;-71
2021/05/25 06:23:27;;;;;;;1.20;0.90;;;10.80;98.00;;;;;;5050911;28;20446;-71
2021/05/25 06:25:56;;;;;;;1.20;0.90;;;10.90;98.00;;;;;;5049300;28;20457;-71
2021/05/25 06:28:23;;;;;;;1.20;1.00;;;10.90;98.00;;;;;;5051873;28;20492;-71
2021/05/25 06:30:49;;;;;;;1.20;0.97;;;11.00;98.00;;;;;;5049107;28;20505;-72
2021/05/25 06:33:16;;;;;;;1.20;0.90;;;11.10;98.00;;;;;;5050422;28;20450;-70
2021/05/25 06:35:42;;;;;;;1.20;1.00;;;11.10;98.00;;;;;;5051665;28;20960;-71
2021/05/25 06:38:09;;;;;;;1.20;1.00;;;11.00;98.00;;;;;;5048967;28;20675;-70
2021/05/25 06:40:35;;;;;;;1.20;1.00;;;10.90;98.00;;;;;;5051461;28;20532;-71
2021/05/25 06:43:03;;;;;;;1.20;1.00;;;11.00;98.00;;;;;;5049168;28;20461;-71
2021/05/25 06:45:29;;;;;;;1.20;1.00;;;10.90;98.00;;;;;;5051440;28;20971;-71
2021/05/25 06:47:56;;;;;;;1.20;0.90;;;11.00;98.00;;;;;;5047816;28;20940;-70
2021/05/25 06:50:22;;;;;;;1.20;1.00;;;10.90;98.00;;;;;;5050128;28;20528;-71
2021/05/25 06:52:49;;;;;;;1.20;1.00;;;10.90;97.80;;;;;;5048906;28;20457;-71
2021/05/25 06:55:16;;;;;;;1.20;0.90;;;10.90;98.00;;;;;;5051542;28;20458;-71
2021/05/25 06:57:43;;;;;;;1.20;0.90;;;10.90;98.00;;;;;;5048816;28;20507;-71
2021/05/25 07:00:13;;;;;;;1.20;1.00;;;11.00;98.00;;;;;;5051147;28;20488;-70
2021/05/25 07:02:39;;;;;;;1.20;1.00;;;11.10;98.00;;;;;;5047649;28;20805;-71
2021/05/25 07:05:07;;;;;;;1.20;0.90;;;11.10;97.70;;;;;;5051249;28;20553;-70
2021/05/25 07:07:34;;;;;;;1.20;0.93;;;11.10;98.00;;;;;;5048813;28;20532;-71
2021/05/25 07:10:00;;;;;;;1.20;1.00;;;11.30;97.90;;;;;;5051147;28;20463;-71
2021/05/25 07:12:27;;;;;;;1.20;1.00;;;11.50;97.90;;;;;;5048634;28;20555;-71
2021/05/25 07:14:54;;;;;;;1.20;1.00;;;11.70;97.00;;;;;;5051200;28;20493;-71
2021/05/25 07:17:21;;;;;;;1.20;0.90;;;11.80;96.90;;;;;;5048854;28;20471;-73
2021/05/25 07:19:48;;;;;;;1.20;0.97;;;11.70;95.60;;;;;;5050955;28;20531;-74
2021/05/25 07:22:14;;;;;;;1.20;0.90;;;11.80;96.70;;;;;;5048716;28;20853;-74
2021/05/25 07:24:44;;;;;;;1.20;0.90;;;11.80;95.00;;;;;;5049338;28;20548;-74
2021/05/25 07:27:10;;;;;;;1.20;0.90;;;11.70;95.70;;;;;;5047225;28;20473;-73
2021/05/25 07:29:39;;;;;;;1.20;0.90;;;11.70;94.30;;;;;;5050411;28;20516;-72
2021/05/25 07:32:06;;;;;;;1.20;1.00;;;11.60;95.80;;;;;;5047506;28;20494;-73
2021/05/25 07:34:34;;;;;;;1.20;0.90;;;11.70;96.00;;;;;;5049559;28;20528;-73
2021/05/25 07:37:00;;;;;;;1.20;1.00;;;11.80;95.60;;;;;;5047342;28;20503;-74
2021/05/25 07:39:27;;;;;;;1.20;1.00;;;11.80;94.90;;;;;;5050425;28;20460;-73
2021/05/25 07:41:53;;;;;;;1.20;1.00;;;12.10;94.50;;;;;;5047605;28;20467;-75
2021/05/25 07:44:20;;;;;;;1.20;0.97;;;12.20;94.20;;;;;;5050213;28;20476;-70
2021/05/25 07:46:46;;;;;;;1.20;1.00;;;12.30;93.90;;;;;;5047239;28;21008;-71
2021/05/25 07:49:13;;;;;;;1.20;0.90;;;12.50;91.80;;;;;;5050135;28;20512;-71
2021/05/25 07:51:40;;;;;;;1.20;1.10;;;12.60;91.60;;;;;;5047467;28;20862;-72
2021/05/25 07:54:07;;;;;;;1.20;1.00;;;12.50;88.40;;;;;;5050014;28;20883;-72
2021/05/25 07:56:35;;;;;;;1.20;1.00;;;12.50;90.20;;;;;;5046963;28;20539;-73
2021/05/25 07:59:01;;;;;;;1.20;1.00;;;12.40;91.80;;;;;;5050015;28;21059;-73
2021/05/25 08:01:28;;;;;;;1.20;0.90;;;12.30;92.30;;;;;;5047415;28;20459;-72
2021/05/25 08:03:54;;;;;;;1.20;1.00;;;12.20;91.00;;;;;;5049889;28;21013;-73
2021/05/25 08:06:21;;;;;;;1.20;1.00;;;12.10;90.70;;;;;;5047468;28;20521;-72
2021/05/25 08:08:48;;;;;;;1.20;0.90;;;12.00;91.50;;;;;;5049850;28;20492;-73
2021/05/25 08:11:15;;;;;;;1.20;1.00;;;12.00;92.30;;;;;;5046664;28;20474;-72
2021/05/25 08:13:44;;;;;;;1.20;1.00;;;12.10;91.60;;;;;;5048080;28;20458;-73
2021/05/25 08:16:28;;;;;;;1.20;1.00;;;12.20;91.10;;;;;;5048163;28;20458;-72
2021/05/25 08:19:06;;;;;;;1.20;1.00;;;12.30;91.00;;;;;;5049081;28;20554;-72
2021/05/25 08:21:33;;;;;;;1.20;1.00;;;12.40;90.00;;;;;;5047295;28;20459;-72
2021/05/25 08:24:00;;;;;;;1.20;1.00;;;12.50;90.80;;;;;;5049626;28;20480;-72
2021/05/25 08:26:27;;;;;;;1.20;0.90;;;12.50;89.50;;;;;;5048173;28;20472;-72
2021/05/25 08:28:54;;;;;;;1.20;1.00;;;12.60;89.50;;;;;;5050474;28;20457;-72
2021/05/25 08:31:20;;;;;;;1.20;1.00;;;12.70;90.30;;;;;;5048207;28;21103;-73
2021/05/25 08:33:46;;;;;;;1.20;0.97;;;12.70;89.00;;;;;;5050352;28;20453;-72
2021/05/25 08:36:16;;;;;;;1.20;1.00;;;12.70;88.60;;;;;;5047900;28;20457;-71
2021/05/25 08:38:42;;;;;;;1.20;1.10;;;12.70;90.10;;;;;;5050179;28;20918;-72
2021/05/25 08:41:10;;;;;;;1.20;1.00;;;12.60;88.00;;;;;;5047639;28;20488;-71
2021/05/25 08:43:37;;;;;;;1.20;1.00;;;12.70;89.00;;;;;;5050240;28;20897;-72
2021/05/25 08:46:04;;;;;;;1.20;0.90;;;12.70;88.60;;;;;;5049136;28;20599;-72
2021/05/25 08:48:31;;;;;;;1.20;0.90;;;12.80;88.60;;;;;;5053749;28;20456;-72
2021/05/25 08:50:59;;;;;;;1.20;0.90;;;12.70;89.20;;;;;;5053552;28;21002;-71
2021/05/25 08:53:26;;;;;;;1.20;0.90;;;12.70;90.40;;;;;;5052966;28;20519;-73
2021/05/25 08:55:53;;;;;;;1.20;0.90;;;12.70;90.20;;;;;;5053647;28;20489;-71
2021/05/25 08:58:22;;;;;;;1.20;1.00;;;12.70;89.20;;;;;;5051526;28;20537;-72
2021/05/25 09:00:52;;;;;;;1.20;1.00;;;12.70;90.20;;;;;;5053579;28;20518;-72
2021/05/25 09:03:20;;;;;;;1.20;1.00;;;12.70;87.30;;;;;;5051104;28;20476;-72
2021/05/25 09:05:52;;;;;;;1.20;1.00;;;12.70;87.30;;;;;;5053447;28;20474;-72
2021/05/25 09:08:19;;;;;;;1.20;0.97;;;12.50;87.40;;;;;;5051221;28;20462;-72
2021/05/25 09:10:47;;;;;;;2.40;1.40;;;12.50;87.80;;;;;;5053321;28;20510;-72
2021/05/25 09:13:16;;;;;;;1.40;1.17;;;12.50;85.90;;;;;;5050992;28;20538;-71
2021/05/25 09:15:45;;;;;;;1.20;1.00;;;12.60;86.20;;;;;;5053690;28;20459;-72
2021/05/25 09:18:13;;;;;;;1.20;1.00;;;12.60;86.70;;;;;;5051055;28;20465;-72
2021/05/25 09:20:46;;;;;;;1.20;1.00;;;12.70;87.30;;;;;;5053933;28;20458;-72
2021/05/25 09:23:14;;;;;;;1.20;1.00;;;12.70;86.70;;;;;;5050984;28;20466;-72
2021/05/25 09:25:52;;;;;;;1.20;1.00;;;12.70;86.20;;;;;;5053855;28;21157;-72
2021/05/25 09:28:19;;;;;;;1.20;1.00;;;12.70;86.30;;;;;;5051318;28;20881;-72
2021/05/25 09:30:47;;;;;;;1.20;1.00;;;12.60;84.70;;;;;;5053519;28;20840;-73
2021/05/25 09:33:15;;;;;;;1.20;1.00;;;12.50;87.10;;;;;;5050091;28;20479;-71
2021/05/25 09:35:43;;;;;;;1.20;0.97;;;12.50;87.40;;;;;;5053203;28;20459;-72
2021/05/25 09:38:12;;;;;;;1.20;1.00;;;12.60;87.20;;;;;;5050600;28;20468;-72
2021/05/25 09:40:40;;;;;;;1.20;0.93;;;12.70;87.70;;;;;;5053299;28;20464;-71
2021/05/25 09:43:11;;;;;;;1.20;0.93;;;12.80;88.80;;;;;;5050709;28;20502;-70
2021/05/25 09:45:38;;;;;;;1.20;1.00;;;13.00;86.40;;;;;;5053505;28;20454;-72
2021/05/25 09:48:06;;;;;;;1.20;1.00;;;13.20;86.00;;;;;;5050853;28;20956;-72
2021/05/25 09:50:43;;;;;;;1.20;0.90;;;13.10;85.30;;;;;;5050936;28;20897;-72
2021/05/25 09:53:12;;;;;;;1.20;1.00;;;13.20;87.10;;;;;;5050516;28;20455;-72
2021/05/25 09:55:48;;;;;;;1.20;0.90;;;13.10;84.70;;;;;;5053077;28;20466;-72
2021/05/25 09:58:15;;;;;;;1.20;1.00;;;13.10;85.60;;;;;;5050153;28;20466;-72
2021/05/25 10:00:44;;;;;;;1.20;0.97;;;13.00;85.90;;;;;;5053041;28;20464;-72
2021/05/25 10:03:17;;;;;;;1.30;1.10;;;13.00;84.70;;;;;;5050155;28;20603;-72
2021/05/25 10:05:45;;;;;;;1.20;1.00;;;13.20;84.60;;;;;;5052927;28;20460;-72
2021/05/25 10:08:13;;;;;;;1.20;1.00;;;13.20;86.80;;;;;;5050053;28;20453;-73
2021/05/25 10:10:41;;;;;;;1.20;1.00;;;13.30;86.60;;;;;;5052839;28;20465;-72
2021/05/25 10:13:09;;;;;;;1.77;1.20;;;13.30;86.00;;;;;;5050037;28;20486;-72
2021/05/25 10:15:35;;;;;;;1.20;0.90;;;13.10;85.50;;;;;;5053006;28;20829;-72
2021/05/25 10:20:45;;;;;;;1.20;0.97;;;13.10;85.60;;;;;;5051962;28;20484;-72
2021/05/25 10:23:12;;;;;;;1.20;1.00;;;13.30;86.40;;;;;;5049932;28;20594;-72
2021/05/25 10:25:41;;;;;;;1.20;1.00;;;13.50;87.10;;;;;;5052901;28;20464;-72
2021/05/25 10:28:10;;;;;;;1.20;1.00;;;13.50;85.60;;;;;;5049446;28;20489;-72
2021/05/25 10:30:39;;;;;;;1.20;1.00;;;13.60;85.40;;;;;;5052382;28;20460;-72
2021/05/25 10:33:27;;;;;;;1.20;1.00;;;13.40;85.60;;;;;;5049969;28;20478;-72
2021/05/25 10:36:01;;;;;;;1.20;0.90;;;13.40;85.00;;;;;;5049420;28;20457;-72
2021/05/25 10:38:29;;;;;;;1.20;0.90;;;13.50;86.50;;;;;;5049517;28;20831;-72
2021/05/25 10:40:58;;;;;;;1.20;1.00;;;13.60;87.10;;;;;;5052584;28;20843;-72
2021/05/25 10:43:44;;;;;;;1.20;1.00;;;13.80;85.10;;;;;;5049586;28;20459;-72
2021/05/25 10:46:27;;;;;;;1.20;1.00;;;14.00;85.60;;;;;;5051913;28;20465;-72
2021/05/25 10:49:04;;;;;;;1.20;1.00;;;14.20;84.40;;;;;;5052211;28;20458;-72
2021/05/25 10:52:14;;;;;;;1.20;1.03;;;14.10;81.80;;;;;;5049362;28;20851;-72
2021/05/25 10:54:49;;;;;;;1.20;1.10;;;14.10;83.00;;;;;;5051800;28;20502;-72
2021/05/25 10:57:51;;;;;;;1.20;1.00;;;14.10;81.70;;;;;;5049386;28;20966;-72
2021/05/25 11:00:38;;;;;;;1.20;1.00;;;13.90;81.60;;;;;;5052122;28;20460;-72
2021/05/25 11:03:19;;;;;;;1.20;0.90;;;13.90;81.40;;;;;;5047423;28;20661;-72
2021/05/25 11:05:51;;;;;;;1.20;1.10;;;13.70;80.90;;;;;;5051919;28;20510;-72
2021/05/25 11:08:41;;;;;;;1.20;1.00;;;13.60;82.70;;;;;;5048762;28;20468;-72
2021/05/25 11:11:10;;;;;;;1.20;1.00;;;13.50;84.00;;;;;;5051577;28;20471;-72
2021/05/25 11:13:50;;;;;;;1.20;1.00;;;13.20;87.80;;;;;;5049513;28;21003;-72
2021/05/25 11:16:27;;;;;;;1.20;1.00;;;13.10;88.60;;;;;;5050108;28;20466;-72
2021/05/25 11:18:58;;;;;;;1.20;0.90;;;12.60;90.80;;;;;;5050620;28;20455;-71
2021/05/25 11:21:48;;;;;;;1.20;1.00;;;12.40;92.90;;;;;;5049056;28;20543;-72
2021/05/25 11:24:32;;;;;;;1.30;1.00;;;12.30;94.20;;;;;;5052962;28;20511;-72
2021/05/25 11:27:04;;;;;;;1.20;1.00;;;12.10;95.40;;;;;;5050285;28;20467;-72
2021/05/25 11:29:31;;;;;;;1.20;1.00;;;11.90;96.40;;;;;;5052646;28;20456;-72
2021/05/25 11:32:02;;;;;;;1.20;1.00;;;12.00;97.80;;;;;;5049418;28;20506;-72
2021/05/25 11:34:28;;;;;;;1.20;1.00;;;12.30;98.00;;;;;;5052337;28;20498;-72
2021/05/25 11:37:00;;;;;;;1.20;1.00;;;12.40;98.00;;;;;;5049991;28;20496;-72
2021/05/25 11:39:28;;;;;;;1.20;1.00;;;12.40;97.80;;;;;;5052233;28;20464;-72
2021/05/25 11:41:56;;;;;;;1.20;1.00;;;12.30;97.10;;;;;;5047582;28;20449;-72
2021/05/25 11:44:32;;;;;;;1.20;1.00;;;12.30;98.00;;;;;;5051818;28;20459;-72
2021/05/25 11:47:03;;;;;;;1.40;1.13;;;12.40;98.00;;;;;;5049960;28;20527;-72
2021/05/25 11:49:34;;;;;;;1.20;1.00;;;12.20;98.00;;;;;;5052176;28;20454;-72
2021/05/25 11:52:17;;;;;;;1.20;1.00;;;12.00;98.00;;;;;;5049618;28;20486;-72
2021/05/25 11:54:44;;;;;;;1.20;1.00;;;11.70;98.00;;;;;;5050822;28;20470;-72
2021/05/25 11:57:24;;;;;;;1.20;1.00;;;11.60;98.00;;;;;;5048499;28;20454;-71
2021/05/25 11:59:51;;;;;;;1.20;0.90;;;12.20;98.00;;;;;;5051314;28;20511;-71
2021/05/25 12:02:25;;;;;;;1.20;1.00;;;13.00;98.00;;;;;;5048652;28;20452;-72
2021/05/25 12:05:06;;;;;;;1.20;0.90;;;13.90;98.00;;;;;;5051221;28;20455;-71
2021/05/25 12:07:33;;;;;;;1.20;1.00;;;14.40;98.00;;;;;;5048588;28;20461;-73
2021/05/25 12:10:02;;;;;;;1.20;1.00;;;14.50;98.00;;;;;;5051498;28;20483;-70
2021/05/25 12:12:29;;;;;;;1.20;1.00;;;14.70;98.00;;;;;;5046152;28;20498;-72
2021/05/25 12:14:59;;;;;;;1.30;1.10;;;15.10;96.60;;;;;;5050637;28;20455;-72
2021/05/25 12:17:29;;;;;;;1.20;1.10;;;14.90;97.50;;;;;;5048505;28;20830;-73
2021/05/25 12:19:57;;;;;;;1.20;1.00;;;14.70;98.00;;;;;;5049228;28;20744;-73
2021/05/25 12:22:35;;;;;;;1.20;1.10;;;14.30;97.70;;;;;;5051739;28;20469;-72
2021/05/25 12:25:35;;;;;;;1.20;1.00;;;14.80;98.00;;;;;;5055119;28;20799;-72
2021/05/25 12:28:08;;;;;;;1.20;1.00;;;15.20;98.00;;;;;;5049683;28;20490;-73
2021/05/25 12:30:51;;;;;;;1.20;1.00;;;15.80;93.60;;;;;;5055153;28;20527;-73
2021/05/25 12:33:19;;;;;;;1.20;1.00;;;16.20;93.50;;;;;;5051584;28;20578;-73
2021/05/25 12:35:46;;;;;;;1.20;1.00;;;16.20;95.60;;;;;;5053715;28;20468;-73
2021/05/25 12:38:15;;;;;;;1.20;1.00;;;15.90;91.10;;;;;;5051920;28;20960;-73
2021/05/25 12:40:44;;;;;;;1.20;1.00;;;15.50;91.80;;;;;;5054902;28;20482;-73
2021/05/25 12:43:21;;;;;;;1.20;1.00;;;15.10;90.10;;;;;;5051957;28;20530;-72
2021/05/25 12:45:50;;;;;;;1.20;1.00;;;15.30;90.70;;;;;;5053201;28;20532;-72
2021/05/25 12:48:32;;;;;;;1.20;1.10;;;15.70;87.00;;;;;;5050297;28;20469;-72
2021/05/25 12:51:01;;;;;;;1.30;1.13;;;16.10;88.10;;;;;;5052501;28;20491;-73
2021/05/25 12:53:28;;;;;;;1.20;1.10;;;15.80;85.40;;;;;;5046539;28;20514;-73
2021/05/25 12:56:06;;;;;;;1.20;1.00;;;15.70;87.20;;;;;;5054492;28;20970;-71
2021/05/25 12:58:51;;;;;;;1.20;1.10;;;15.70;86.80;;;;;;5049397;28;20463;-72
2021/05/25 13:01:33;;;;;;;1.20;1.03;;;15.70;85.90;;;;;;5052089;28;21000;-72
2021/05/25 13:04:31;;;;;;;1.20;1.00;;;15.80;86.00;;;;;;5048887;28;20457;-71
2021/05/25 13:07:04;;;;;;;1.20;1.00;;;15.50;85.10;;;;;;5046039;28;20458;-70
2021/05/25 13:09:38;;;;;;;1.20;1.00;;;15.30;82.40;;;;;;5050747;28;20455;-71
2021/05/25 13:12:07;;;;;;;1.20;1.00;;;15.30;81.00;;;;;;5044813;28;20501;-71
2021/05/25 13:14:36;;;;;;;1.20;1.07;;;15.20;80.30;;;;;;5048275;28;20944;-71
2021/05/25 13:17:05;;;;;;;1.20;1.00;;;15.40;81.00;;;;;;5049093;28;20520;-72
2021/05/25 13:19:36;;;;;;;1.60;1.10;;;15.80;84.60;;;;;;5051687;28;20453;-71
2021/05/25 13:22:05;;;;;;;1.20;1.10;;;16.40;79.40;;;;;;5048839;28;20460;-68
2021/05/25 13:24:32;;;;;;;1.20;1.00;;;16.80;81.70;;;;;;5049795;28;20462;-71
2021/05/25 13:26:59;;;;;;;1.20;1.10;;;17.00;78.10;;;;;;5051215;28;20487;-70
2021/05/25 13:29:27;;;;;;;1.37;1.10;;;17.50;77.30;;;;;;5053886;28;20460;-71
2021/05/25 13:31:53;;;;;;;1.20;1.00;;;17.80;76.00;;;;;;5050676;28;20532;-72
2021/05/25 13:34:24;;;;;;;1.20;1.00;;;17.80;71.90;;;;;;5053622;28;20461;-71
2021/05/25 13:36:53;;;;;;;1.20;1.17;;;17.70;74.80;;;;;;5051062;28;21063;-70
2021/05/25 13:39:23;;;;;;;1.20;1.03;;;17.50;74.10;;;;;;5053546;28;20489;-71
2021/05/25 13:41:51;;;;;;;1.20;1.00;;;17.20;75.60;;;;;;5048753;28;21038;-70
2021/05/25 13:44:18;;;;;;;1.50;1.27;;;16.70;74.40;;;;;;5053525;28;20951;-71
2021/05/25 13:46:45;;;;;;;1.20;1.00;;;16.80;75.00;;;;;;5050769;28;20456;-70